Tracyton, Washington
Current Conditions -  °F | °C
As of 10:15 PM on Saturday 25 Oct 2014 (Local Time) from KPWT Reporting Station
Clear Clear  
Wind Chill: 52°   Ceiling: Unl
Heat Index: 52°   Visibility: 10mi
Dew Point: 46°   Wind: 24mph
Humidity: 82%   Direction: 200°SSW
Pressure: 29.65"   Gusts: 29mph
Location:  47.61°N, 122.66°W
Report Text: KPWT 260515Z AUTO 20021G25KT 10SM CLR 11/08 A2965 RMK AO1
Loading
Personal Weather Stations






























Interactive Weather Map
Tropical Storm Tracking
New forecast layout! Learn more

10-Day Weather Forecast

Advertisements
Track Severe Weather on mobile